Latest Weather Observations for Frankston

IDV60801

Issued at 8:32 pm EST Saturday 24 June 2017 (issued every 30 minutes, with the page automatically refreshed every 10 minutes)

About weather observations | Map of weather stations | Latest weather observations for VIC | Other Formats
Station Details ID: 086371 Name: FRANKSTON AWS Lat: -38.15 Lon: 145.12 Height: 6.0 m
Data from the previous 72 hours. | See also: Recent months at Frankston
Date/Time
EST
Temp
°C
App
Temp
°C
Dew
Point
°C
Rel
Hum
%
Delta-T
°C
Wind Press
QNH
hPa
Press
MSL
hPa
Rain since
9am
mm
Dir  Spd
km/h
Gust
km/h
Spd
kts
Gust
kts
24/08:30pm 10.9 6.5 7.2 78 1.8 NW 20 24 11 13 - - -
24/08:00pm 11.0 6.1 6.7 75 2.0 WNW 22 26 12 14 - - -
24/07:30pm 10.9 6.0 7.0 77 1.9 WNW 22 32 12 17 - - -
24/07:00pm 11.0 5.7 6.6 74 2.1 WNW 24 30 13 16 - - -
24/06:30pm 11.0 5.6 6.4 73 2.2 WNW 24 28 13 15 - - -
24/06:00pm 11.2 5.8 6.3 72 2.3 W 24 28 13 15 - - -
24/05:30pm 11.2 6.7 6.1 71 2.4 W 19 22 10 12 - - -
24/05:00pm 11.4 6.9 5.9 69 2.6 WNW 19 22 10 12 - - -
24/04:30pm 11.3 8.1 5.2 66 2.8 W 11 17 6 9 - - -
24/04:00pm 11.4 8.1 6.3 71 2.4 WNW 13 17 7 9 - - -
24/03:30pm 11.1 8.2 6.3 72 2.2 WNW 11 17 6 9 - - -
24/03:00pm 11.0 7.3 6.4 73 2.2 WNW 15 19 8 10 - - -
24/02:30pm 10.9 7.3 6.8 76 1.9 WNW 15 20 8 11 - - -
24/02:00pm 10.7 6.6 6.1 73 2.1 W 17 20 9 11 - - -
24/01:30pm 10.7 6.8 7.2 79 1.7 WNW 17 22 9 12 - - -
24/01:00pm 10.5 6.5 6.5 76 1.9 WSW 17 24 9 13 - - -
24/12:30pm 10.7 6.0 6.1 73 2.1 W 20 24 11 13 - - -
24/12:00pm 10.2 5.8 6.5 78 1.7 W 19 22 10 12 - - -
24/11:30am 10.2 6.0 7.3 82 1.4 W 19 22 10 12 - - -
24/11:00am 9.9 5.5 6.6 80 1.5 W 19 24 10 13 - - -
24/10:30am 9.9 7.1 6.8 81 1.5 W 11 17 6 9 - - -
24/10:00am 9.8 5.4 7.4 85 1.1 WSW 20 24 11 13 - - -
24/09:30am 9.3 8.4 7.9 91 0.7 WNW 2 6 1 3 - - -
24/09:00am 8.6 6.7 7.5 93 0.5 S 7 11 4 6 - - -
24/08:30am 8.7 4.5 7.3 91 0.7 SW 19 28 10 15 - - -
24/08:00am 8.4 6.4 6.9 90 0.7 S 7 15 4 8 - - -
24/07:30am 9.1 7.1 7.2 88 0.9 SW 7 13 4 7 - - -
24/07:00am 8.2 5.2 6.0 86 1.0 SSW 11 19 6 10 - - -
24/06:30am 9.1 6.6 6.4 83 1.2 SSW 9 19 5 10 - - -
24/06:00am 10.6 6.5 8.0 84 1.3 WNW 19 22 10 12 - - -
24/05:30am 10.1 5.0 5.9 75 1.9 WSW 22 32 12 17 - - -
24/05:00am 9.8 6.2 6.9 82 1.4 SW 15 22 8 12 - - -
24/04:30am 10.2 7.9 7.6 84 1.2 SSW 9 13 5 7 - - -
24/04:00am 10.1 8.0 8.2 88 0.9 SSW 9 15 5 8 - - -
24/03:30am 10.0 8.7 9.1 94 0.4 SSW 6 9 3 5 - - -
24/03:00am 9.6 8.1 9.1 97 0.2 SSW 7 11 4 6 - - -
24/02:30am 9.6 8.1 9.3 98 0.1 SSW 7 13 4 7 - - -
24/02:00am 9.8 8.1 9.7 99 0.0 SSW 9 19 5 10 - - -
24/01:30am 9.6 7.8 9.5 99 0.0 SSW 9 15 5 8 - - -
24/01:00am 9.8 6.9 9.7 99 0.0 SW 15 24 8 13 - - -
24/12:30am 10.3 7.1 10.1 99 0.1 SW 17 28 9 15 - - -
24/12:00am 12.0 6.8 11.5 97 0.3 W 30 37 16 20 - - -
 
Date/Time
EST
Temp
°C
App
Temp
°C
Dew
Point
°C
Rel
Hum
%
Delta-T
°C
Wind Press
QNH
hPa
Press
MSL
hPa
Rain since
9am
mm
Dir  Spd
km/h
Gust
km/h
Spd
kts
Gust
kts
23/11:30pm 11.8 6.6 11.6 99 0.1 WNW 30 37 16 20 - - -
23/11:00pm 12.0 6.8 11.7 98 0.2 WNW 30 37 16 20 - - -
23/10:30pm 11.9 6.7 11.6 98 0.2 WNW 30 35 16 19 - - -
23/10:00pm 11.8 5.9 11.3 97 0.3 WNW 33 43 18 23 - - -
23/09:30pm 12.8 7.4 10.9 88 1.0 NW 30 39 16 21 - - -
23/09:00pm 12.7 7.3 10.9 89 0.9 NNW 30 35 16 19 - - -
23/08:30pm 12.8 7.4 10.9 88 1.0 NNW 30 37 16 20 - - -
23/08:00pm 12.7 7.7 10.9 89 0.9 NNW 28 35 15 19 - - -
23/07:30pm 13.0 7.2 10.7 86 1.2 NNW 32 39 17 21 - - -
23/07:00pm 12.9 8.6 10.6 86 1.2 NNW 24 33 13 18 - - -
23/06:30pm 13.4 8.0 10.9 85 1.3 NW 30 35 16 19 - - -
23/06:00pm 12.8 8.1 10.7 87 1.1 NNW 26 33 14 18 - - -
23/05:30pm 12.5 6.9 10.0 85 1.3 N 30 37 16 20 - - -
23/05:00pm 12.6 7.0 10.1 85 1.3 N 30 37 16 20 - - -
23/04:30pm 12.9 7.4 10.4 85 1.3 N 30 37 16 20 - - -
23/04:00pm 12.5 6.8 9.9 84 1.3 N 30 37 16 20 - - -
23/03:30pm 12.5 6.7 9.5 82 1.5 N 30 37 16 20 - - -
23/03:00pm 12.7 6.5 9.5 81 1.6 N 32 39 17 21 - - -
23/02:30pm 13.3 7.7 10.1 81 1.7 NNW 30 37 16 20 - - -
23/02:00pm 13.5 7.8 9.7 78 1.9 NNW 30 39 16 21 - - -
23/01:30pm 13.2 8.3 9.8 80 1.7 N 26 32 14 17 - - -
23/01:00pm 12.9 7.2 9.7 81 1.6 N 30 35 16 19 - - -
23/12:30pm 12.6 7.2 9.4 81 1.6 N 28 35 15 19 - - -
23/12:00pm 12.5 6.7 9.5 82 1.5 N 30 39 16 21 - - -
23/11:30am 12.1 6.5 8.9 81 1.6 N 28 35 15 19 - - -
23/11:00am 11.5 5.9 8.9 84 1.3 N 28 35 15 19 - - -
23/10:30am 10.8 5.5 8.4 85 1.2 N 26 32 14 17 - - -
23/10:00am 10.3 4.9 8.2 87 1.0 NNE 26 32 14 17 - - -
23/09:30am 9.8 4.8 7.9 88 0.9 NNE 24 30 13 16 - - -
23/09:00am 9.3 5.2 7.7 90 0.8 NNE 19 28 10 15 - - -
23/08:30am 9.2 5.1 7.8 91 0.7 NNE 19 28 10 15 - - -
23/08:00am 9.4 5.4 8.2 92 0.6 NNE 19 28 10 15 - - -
23/07:30am 9.0 4.6 7.6 91 0.7 NNE 20 28 11 15 - - -
23/07:00am 9.9 4.2 8.5 91 0.7 N 28 32 15 17 - - -
23/06:30am 10.2 5.8 8.8 91 0.7 N 22 28 12 15 - - -
23/06:00am 9.3 6.7 7.7 90 0.8 NE 11 17 6 9 - - -
23/05:30am 10.1 6.6 8.9 92 0.6 NNE 17 22 9 12 - - -
23/05:00am 10.3 6.3 8.9 91 0.7 N 20 26 11 14 - - -
23/04:30am 10.4 7.4 9.2 92 0.6 NNE 15 22 8 12 - - -
23/04:00am 10.7 6.9 9.1 90 0.8 N 19 26 10 14 - - -
23/03:30am 10.9 7.0 9.3 90 0.8 N 20 24 11 13 - - -
23/03:00am 11.0 7.1 9.3 89 0.8 N 20 24 11 13 - - -
23/02:30am 10.8 7.7 8.7 87 1.0 NNE 15 20 8 11 - - -
23/02:00am 10.9 7.7 8.5 85 1.2 NNE 15 24 8 13 - - -
23/01:30am 11.0 8.1 8.2 83 1.4 NNE 13 20 7 11 - - -
23/01:00am 11.0 9.3 7.7 80 1.6 NE 6 9 3 5 - - -
23/12:30am 11.2 9.4 7.9 80 1.6 NE 7 13 4 7 - - -
23/12:00am 11.2 9.9 7.7 79 1.7 ENE 4 7 2 4 - - -
 
Date/Time
EST
Temp
°C
App
Temp
°C
Dew
Point
°C
Rel
Hum
%
Delta-T
°C
Wind Press
QNH
hPa
Press
MSL
hPa
Rain since
9am
mm
Dir  Spd
km/h
Gust
km/h
Spd
kts
Gust
kts
22/11:30pm 11.3 10.0 7.6 78 1.8 E 4 7 2 4 - - -
22/11:00pm 11.5 9.9 7.8 78 1.8 ENE 6 7 3 4 - - -
22/10:30pm 11.3 9.7 7.8 79 1.7 NE 6 11 3 6 - - -
22/10:00pm 11.0 9.3 7.7 80 1.6 ENE 6 11 3 6 - - -
22/09:30pm 10.8 9.2 7.9 82 1.4 NE 6 11 3 6 - - -
22/09:00pm 10.7 8.8 7.6 81 1.5 NE 7 11 4 6 - - -
22/08:30pm 10.9 9.1 7.8 81 1.5 NE 7 11 4 6 - - -
22/08:00pm 10.8 9.6 7.9 82 1.4 E 4 7 2 4 - - -
22/07:30pm 11.6 9.8 8.1 79 1.7 ENE 7 11 4 6 - - -
22/07:00pm 12.0 10.5 8.3 78 1.8 ENE 6 9 3 5 - - -
22/06:30pm 12.3 10.5 7.8 74 2.2 NE 7 11 4 6 - - -
22/06:00pm 12.3 10.6 8.2 76 2.0 NNE 7 13 4 7 - - -
22/05:30pm 12.5 10.4 8.2 75 2.1 NE 9 13 5 7 - - -
22/05:00pm 12.7 10.6 8.2 74 2.2 NE 9 15 5 8 - - -
22/04:30pm 12.9 10.9 8.6 75 2.1 NNE 9 17 5 9 - - -
22/04:00pm 13.1 10.1 9.2 77 2.0 NNE 15 19 8 10 - - -
22/03:30pm 12.9 11.7 9.5 80 1.7 NNE 6 7 3 4 - - -
22/03:00pm 12.9 11.7 9.4 79 1.8 N 6 7 3 4 - - -
22/02:30pm 12.9 11.5 9.0 77 2.0 N 6 7 3 4 - - -
22/02:00pm 12.8 11.4 8.9 77 2.0 N 6 7 3 4 - - -
22/01:30pm 12.6 10.8 8.1 74 2.2 N 7 11 4 6 - - -
22/01:00pm 12.0 11.0 8.8 81 1.6 WNW 4 6 2 3 - - -
22/12:30pm 11.5 11.2 8.5 82 1.5 CALM 0 0 0 0 - - -
22/12:00pm 10.8 9.2 8.2 84 1.3 W 6 6 3 3 - - -
22/11:30am 10.6 9.9 8.5 87 1.0 SW 2 4 1 2 - - -
22/11:00am 10.2 9.7 8.0 86 1.1 CALM 0 0 0 0 - - -
22/10:30am 10.7 10.5 9.1 90 0.8 CALM 0 0 0 0 - - -
22/10:00am 9.6 8.9 8.5 93 0.5 NNW 2 4 1 2 - - -
22/09:30am 9.2 8.1 8.4 95 0.4 N 4 6 2 3 - - -
22/09:00am 9.1 8.1 9.0 99 0.0 N 4 7 2 4 - - -
22/08:30am 9.0 8.4 8.9 99 0.0 ESE 2 4 1 2 - - -
22/08:00am 8.9 7.5 8.8 99 0.0 ENE 6 9 3 5 - - -
22/07:30am 9.2 8.3 9.1 99 0.0 E 4 6 2 3 - - -
22/07:00am 9.6 8.8 9.5 99 0.0 NE 4 9 2 5 - - -
22/06:30am 9.4 8.1 9.3 99 0.0 ENE 6 9 3 5 - - -
22/06:00am 9.4 8.5 9.3 99 0.0 E 4 6 2 3 - - -
22/05:30am 9.6 8.4 9.5 99 0.0 ENE 6 9 3 5 - - -
22/05:00am 9.7 8.9 9.6 99 0.0 SE 4 7 2 4 - - -
22/04:30am 9.7 8.5 9.6 99 0.0 SE 6 7 3 4 - - -
22/04:00am 9.6 9.1 9.5 99 0.0 ESE 2 6 1 3 - - -
22/03:30am 9.6 8.8 9.5 99 0.0 E 4 9 2 5 - - -
22/03:00am 9.7 9.5 9.1 96 0.3 CALM 0 0 0 0 - - -
22/02:30am 9.8 9.6 9.0 95 0.4 CALM 0 0 0 0 - - -
22/02:00am 9.9 9.7 9.1 95 0.4 CALM 0 4 0 2 - - -
22/01:30am 10.1 9.2 9.2 94 0.4 ENE 4 4 2 2 - - -
22/01:00am 10.3 9.4 9.1 92 0.6 ENE 4 6 2 3 - - -
22/12:30am 10.2 9.6 9.0 92 0.6 E 2 6 1 3 - - -
22/12:00am 10.3 8.9 8.9 91 0.7 ESE 6 7 3 4 - - -
 
Date/Time
EST
Temp
°C
App
Temp
°C
Dew
Point
°C
Rel
Hum
%
Delta-T
°C
Wind Press
QNH
hPa
Press
MSL
hPa
Rain since
9am
mm
Dir  Spd
km/h
Gust
km/h
Spd
kts
Gust
kts
21/11:30pm 10.4 9.4 9.0 91 0.7 SE 4 6 2 3 - - -
21/11:00pm 10.4 9.4 9.0 91 0.7 SSE 4 6 2 3 - - -
21/10:30pm 10.5 9.6 9.3 92 0.6 SSE 4 7 2 4 - - -
21/10:00pm 10.5 9.7 9.6 94 0.5 SE 4 6 2 3 - - -
21/09:30pm 10.4 9.9 9.5 94 0.4 E 2 6 1 3 - - -
21/09:00pm 10.4 10.3 9.5 94 0.4 CALM 0 0 0 0 - - -

Other Formats:

Comma delimited format used in spreadsheet applications
http://www.bom.gov.au/fwo/IDV60801/IDV60801.94871.axf

JavaScript Object Notation format (JSON) in row-major order
http://www.bom.gov.au/fwo/IDV60801/IDV60801.94871.json